createdAt,value
2023-04-24T00:01:21.173Z,9.38
2023-04-24T00:06:24.914Z,5.43
2023-04-24T00:11:28.716Z,5.10
2023-04-24T00:16:32.253Z,6.22
2023-04-24T00:21:36.119Z,5.03
2023-04-24T00:26:40.453Z,6.65
2023-04-24T00:31:44.059Z,5.80
2023-04-24T00:36:47.634Z,6.35
2023-04-24T00:41:52.191Z,4.50
2023-04-24T00:46:57.002Z,5.80
2023-04-24T00:52:00.757Z,5.15
2023-04-24T00:57:05.758Z,4.07
2023-04-24T01:02:12.347Z,4.10
2023-04-24T01:07:15.832Z,6.05
2023-04-24T01:12:19.797Z,5.88
2023-04-24T01:17:23.050Z,3.58
2023-04-24T01:22:26.646Z,2.80
2023-04-24T01:27:29.805Z,4.75
2023-04-24T01:32:34.428Z,11.82
2023-04-24T01:37:40.833Z,2.90
2023-04-24T01:42:44.104Z,4.20
2023-04-24T01:47:48.017Z,4.32
2023-04-24T01:52:51.620Z,3.55
2023-04-24T01:57:58.149Z,6.03
2023-04-24T02:03:03.438Z,5.15
2023-04-24T02:08:07.723Z,3.22
2023-04-24T02:13:14.129Z,4.03
2023-04-24T02:18:18.322Z,4.78
2023-04-24T02:23:21.372Z,5.60
2023-04-24T02:28:24.922Z,5.07
2023-04-24T02:33:29.043Z,5.15
2023-04-24T02:38:32.856Z,2.67
2023-04-24T02:43:36.745Z,2.95
2023-04-24T02:48:40.692Z,2.70
2023-04-24T02:53:44.437Z,2.20
2023-04-24T02:58:48.225Z,2.28
2023-04-24T03:03:51.508Z,2.75
2023-04-24T03:08:55.903Z,2.75
2023-04-24T03:13:59.869Z,2.33
2023-04-24T03:19:03.980Z,2.72
2023-04-24T03:24:10.826Z,3.78
2023-04-24T03:29:15.245Z,2.33
2023-04-24T03:34:19.378Z,3.00
2023-04-24T03:39:23.644Z,3.33
2023-04-24T03:44:31.473Z,2.70
2023-04-24T03:49:35.305Z,5.57
2023-04-24T03:54:38.877Z,2.72
2023-04-24T03:59:43.752Z,3.58
2023-04-24T04:04:53.769Z,2.42
2023-04-24T04:09:57.577Z,2.08
2023-04-24T04:15:01.786Z,4.88
2023-04-24T04:20:10.087Z,2.55
2023-04-24T04:25:15.236Z,1.73
2023-04-24T04:30:19.925Z,1.67
2023-04-24T04:35:33.804Z,1.75
2023-04-24T04:40:37.617Z,4.65
2023-04-24T04:45:44.779Z,1.55
2023-04-24T04:51:17.908Z,1.83
2023-04-24T04:56:21.118Z,1.35
2023-04-24T05:01:25.506Z,0.93
2023-04-24T05:06:28.913Z,3.35
2023-04-24T05:11:32.664Z,1.58
2023-04-24T05:16:38.855Z,2.53
2023-04-24T05:21:44.008Z,6.88
2023-04-24T05:26:48.471Z,3.75
2023-04-24T05:37:00.377Z,3.92
2023-04-24T05:42:06.595Z,4.87
2023-04-24T05:47:10.294Z,7.18
2023-04-24T05:52:14.021Z,1.65
2023-04-24T05:57:18.871Z,2.45
2023-04-24T06:02:41.474Z,3.42
2023-04-24T06:07:49.438Z,1.83
2023-04-24T06:12:53.421Z,6.43
2023-04-24T06:17:57.570Z,2.28
2023-04-24T06:23:01.839Z,2.20
2023-04-24T06:28:05.322Z,5.25
2023-04-24T06:33:19.364Z,3.55
2023-04-24T06:38:23.976Z,6.18
2023-04-24T06:43:27.071Z,5.10
2023-04-24T06:48:30.905Z,6.53
2023-04-24T06:53:34.954Z,7.75
2023-04-24T06:58:38.127Z,6.90
2023-04-24T07:03:41.882Z,13.23
2023-04-24T07:08:45.561Z,10.13
2023-04-24T07:13:49.036Z,12.32
2023-04-24T07:18:52.725Z,10.82
2023-04-24T07:23:56.694Z,7.32
2023-04-24T07:29:01.301Z,10.57
2023-04-24T07:34:04.920Z,7.45
2023-04-24T07:39:09.504Z,7.25
2023-04-24T07:44:12.878Z,6.00
2023-04-24T07:49:19.162Z,7.75
2023-04-24T07:54:23.719Z,4.90
2023-04-24T07:59:27.588Z,5.95
2023-04-24T08:04:31.460Z,3.53
2023-04-24T08:09:35.453Z,11.25
2023-04-24T08:14:39.544Z,7.05
2023-04-24T08:19:49.600Z,6.82
2023-04-24T08:24:53.431Z,7.90
2023-04-24T08:29:56.969Z,6.00
2023-04-24T08:35:01.121Z,15.25
2023-04-24T08:40:11.987Z,8.57
2023-04-24T08:45:16.996Z,8.65
2023-04-24T08:50:20.488Z,7.73
2023-04-24T08:55:26.282Z,7.13
2023-04-24T09:05:34.962Z,6.82
2023-04-24T09:10:38.679Z,7.28
2023-04-24T09:15:42.834Z,5.07
2023-04-24T09:21:04.941Z,6.40
2023-04-24T09:26:11.255Z,4.38
2023-04-24T09:31:19.763Z,4.63
2023-04-24T09:36:39.150Z,4.95
2023-04-24T09:41:48.756Z,5.55
2023-04-24T09:46:58.607Z,11.50
2023-04-24T09:52:11.255Z,6.40
2023-04-24T09:57:16.491Z,5.38
2023-04-24T10:02:21.297Z,6.47
2023-04-24T10:07:27.558Z,6.33
2023-04-24T10:12:32.318Z,6.50
2023-04-24T10:17:37.418Z,5.50
2023-04-24T10:22:41.676Z,6.15
2023-04-24T10:27:47.602Z,5.40
2023-04-24T10:32:51.135Z,4.70
2023-04-24T10:38:08.032Z,4.65
2023-04-24T10:43:12.621Z,4.60
2023-04-24T10:48:17.642Z,7.53
2023-04-24T10:53:28.071Z,6.40
2023-04-24T10:58:58.774Z,5.70
2023-04-24T11:04:04.841Z,6.78
2023-04-24T11:09:12.494Z,7.05
2023-04-24T11:14:17.146Z,6.80
2023-04-24T11:19:22.728Z,7.00
2023-04-24T11:24:28.506Z,5.85
2023-04-24T11:29:57.786Z,4.88
2023-04-24T11:35:10.822Z,7.40
2023-04-24T11:40:18.989Z,4.70
2023-04-24T11:45:27.690Z,4.15
2023-04-24T11:50:32.198Z,10.93
2023-04-24T11:55:35.838Z,6.40
2023-04-24T12:00:39.800Z,3.00
2023-04-24T12:05:43.641Z,2.75
2023-04-24T12:10:53.097Z,5.65
2023-04-24T12:15:58.471Z,4.55
2023-04-24T12:21:23.103Z,5.10
2023-04-24T12:26:28.962Z,7.80
2023-04-24T12:31:33.663Z,3.72
2023-04-24T12:36:37.651Z,3.93
2023-04-24T12:41:52.571Z,7.53
2023-04-24T12:46:56.625Z,3.73
2023-04-24T12:52:00.328Z,5.97
2023-04-24T12:57:04.671Z,5.85
2023-04-24T13:02:10.376Z,9.45
2023-04-24T13:07:15.229Z,7.60
2023-04-24T13:12:19.330Z,5.00
2023-04-24T13:17:24.072Z,4.63
2023-04-24T13:22:28.680Z,5.78
2023-04-24T13:27:32.849Z,4.47
2023-04-24T13:32:37.858Z,4.32
2023-04-24T13:37:41.712Z,5.43
2023-04-24T13:42:45.697Z,3.58
2023-04-24T13:47:51.880Z,4.95
2023-04-24T13:52:55.533Z,4.25
2023-04-24T13:57:59.056Z,8.88
2023-04-24T14:03:02.684Z,6.60
2023-04-24T14:08:07.544Z,3.92
2023-04-24T14:13:10.717Z,4.30
2023-04-24T14:18:13.880Z,10.77
2023-04-24T14:23:18.717Z,5.45
2023-04-24T14:28:22.948Z,5.50
2023-04-24T14:33:26.595Z,4.35
2023-04-24T14:38:31.590Z,5.80
2023-04-24T14:43:36.491Z,6.15
2023-04-24T14:48:40.707Z,4.38
2023-04-24T14:53:44.461Z,5.32
2023-04-24T14:58:49.256Z,7.80
2023-04-24T15:03:53.585Z,7.40
2023-04-24T15:08:57.714Z,4.82
2023-04-24T15:14:01.404Z,5.72
2023-04-24T15:19:05.338Z,8.05
2023-04-24T15:24:08.664Z,4.50
2023-04-24T15:29:12.793Z,6.28
2023-04-24T15:34:16.365Z,7.07
2023-04-24T15:39:24.566Z,8.48
2023-04-24T15:44:27.910Z,5.75
2023-04-24T15:49:32.574Z,5.35
2023-04-24T15:54:36.210Z,7.13
2023-04-24T15:59:40.610Z,7.05
2023-04-24T16:04:43.746Z,7.25
2023-04-24T16:09:47.655Z,7.43
2023-04-24T16:14:51.069Z,4.72
2023-04-24T16:19:54.699Z,4.78
2023-04-24T16:24:58.909Z,7.10
2023-04-24T16:30:03.283Z,4.50
2023-04-24T16:35:06.820Z,6.68
2023-04-24T16:40:11.207Z,9.02
2023-04-24T16:45:14.508Z,4.85
2023-04-24T16:50:18.020Z,4.97
2023-04-24T16:55:21.525Z,6.63
2023-04-24T17:00:25.711Z,7.13
2023-04-24T17:05:28.741Z,5.85
2023-04-24T17:10:32.573Z,6.57
2023-04-24T17:15:37.294Z,7.00
2023-04-24T17:20:40.924Z,5.93
2023-04-24T17:25:44.329Z,6.35
2023-04-24T17:30:48.501Z,10.77
2023-04-24T17:35:51.872Z,11.05
2023-04-24T17:40:55.646Z,8.00
2023-04-24T17:46:00.308Z,6.60
2023-04-24T17:51:04.444Z,9.52
2023-04-24T17:56:08.706Z,8.10
2023-04-24T18:01:11.781Z,8.38
2023-04-24T18:06:25.776Z,6.63
2023-04-24T18:11:36.135Z,10.18
2023-04-24T18:16:39.692Z,9.45
2023-04-24T18:21:43.452Z,8.52
2023-04-24T18:26:46.778Z,7.28
2023-04-24T18:31:50.518Z,7.65
2023-04-24T18:36:54.820Z,11.60
2023-04-24T18:41:59.165Z,15.15
2023-04-24T18:47:02.606Z,8.63
2023-04-24T18:57:41.724Z,13.02
2023-04-24T19:02:45.726Z,15.90
2023-04-24T19:07:49.452Z,13.32
2023-04-24T19:12:56.683Z,13.30
2023-04-24T19:18:02.032Z,15.68
2023-04-24T19:23:06.726Z,15.48
2023-04-24T19:28:10.813Z,12.75
2023-04-24T19:33:16.035Z,12.05
2023-04-24T19:38:20.450Z,18.23
2023-04-24T19:43:24.194Z,19.42
2023-04-24T19:48:32.993Z,14.93
2023-04-24T19:53:36.410Z,14.32
2023-04-24T19:58:40.318Z,19.83
2023-04-24T20:03:45.368Z,10.45
2023-04-24T20:08:51.133Z,12.73
2023-04-24T20:13:54.537Z,9.55
2023-04-24T20:18:58.264Z,10.48
2023-04-24T20:24:01.952Z,11.10
2023-04-24T20:29:07.116Z,9.55
2023-04-24T20:41:30.875Z,8.70
2023-04-24T20:46:34.746Z,6.93
2023-04-24T20:51:38.833Z,8.85
2023-04-24T20:56:43.083Z,12.18
2023-04-24T21:01:46.927Z,7.72
2023-04-24T21:06:51.068Z,5.03
2023-04-24T21:11:57.439Z,6.78
2023-04-24T21:17:02.173Z,6.07
2023-04-24T21:22:05.970Z,7.00
2023-04-24T21:27:10.193Z,7.63
2023-04-24T21:32:14.146Z,7.10
2023-04-24T21:37:17.803Z,7.22
2023-04-24T21:42:21.641Z,6.15
2023-04-24T21:47:24.759Z,6.25
2023-04-24T21:52:28.800Z,5.97
2023-04-24T21:57:32.454Z,4.47
2023-04-24T22:02:36.489Z,6.13
2023-04-24T22:07:40.289Z,6.53
2023-04-24T22:12:45.208Z,7.45
2023-04-24T22:17:49.981Z,4.75
2023-04-24T22:22:53.593Z,8.70
2023-04-24T22:27:57.629Z,5.68
2023-04-24T22:33:00.722Z,7.60
2023-04-24T22:38:04.602Z,6.95
2023-04-24T22:43:08.861Z,7.47
2023-04-24T22:48:12.639Z,5.13
2023-04-24T22:53:16.546Z,7.35
2023-04-24T22:58:20.707Z,5.60
2023-04-24T23:03:24.714Z,6.93
2023-04-24T23:08:28.357Z,7.63
2023-04-24T23:13:32.450Z,5.80
2023-04-24T23:18:36.059Z,9.65
2023-04-24T23:23:39.685Z,7.25
2023-04-24T23:28:42.806Z,8.50
2023-04-24T23:33:46.761Z,5.00
2023-04-24T23:38:51.004Z,8.68
2023-04-24T23:43:55.301Z,8.65
2023-04-24T23:48:58.272Z,9.68
2023-04-24T23:54:02.243Z,5.22
2023-04-24T23:59:05.743Z,6.78
